sensor_id;sensor_type;location;lat;lon;timestamp;P1;durP1;ratioP1;P2;durP2;ratioP2
48516;SDS011;34310;51.904;4.256;2023-04-29T00:01:31;9.77;;;7.28;;
48516;SDS011;34310;51.904;4.256;2023-04-29T00:03:59;8.43;;;6.70;;
48516;SDS011;34310;51.904;4.256;2023-04-29T00:06:27;9.80;;;7.30;;
48516;SDS011;34310;51.904;4.256;2023-04-29T00:08:54;9.55;;;7.45;;
48516;SDS011;34310;51.904;4.256;2023-04-29T00:11:21;7.88;;;6.97;;
48516;SDS011;34310;51.904;4.256;2023-04-29T00:13:49;8.73;;;7.13;;
48516;SDS011;34310;51.904;4.256;2023-04-29T00:16:16;7.93;;;6.82;;
48516;SDS011;34310;51.904;4.256;2023-04-29T00:18:43;7.50;;;6.57;;
48516;SDS011;34310;51.904;4.256;2023-04-29T00:21:11;9.15;;;6.93;;
48516;SDS011;34310;51.904;4.256;2023-04-29T00:23:38;7.88;;;6.55;;
48516;SDS011;34310;51.904;4.256;2023-04-29T00:26:06;8.30;;;7.00;;
48516;SDS011;34310;51.904;4.256;2023-04-29T00:28:33;11.50;;;6.97;;
48516;SDS011;34310;51.904;4.256;2023-04-29T00:31:00;8.05;;;6.82;;
48516;SDS011;34310;51.904;4.256;2023-04-29T00:33:28;9.65;;;7.28;;
48516;SDS011;34310;51.904;4.256;2023-04-29T00:35:55;8.07;;;6.60;;
48516;SDS011;34310;51.904;4.256;2023-04-29T00:38:23;7.45;;;6.45;;
48516;SDS011;34310;51.904;4.256;2023-04-29T00:40:50;7.75;;;6.63;;
48516;SDS011;34310;51.904;4.256;2023-04-29T00:43:18;7.70;;;6.63;;
48516;SDS011;34310;51.904;4.256;2023-04-29T00:45:46;8.70;;;7.03;;
48516;SDS011;34310;51.904;4.256;2023-04-29T00:48:14;7.45;;;6.47;;
48516;SDS011;34310;51.904;4.256;2023-04-29T00:50:41;8.48;;;6.78;;
48516;SDS011;34310;51.904;4.256;2023-04-29T00:53:09;8.38;;;6.70;;
48516;SDS011;34310;51.904;4.256;2023-04-29T00:55:40;8.48;;;6.20;;
48516;SDS011;34310;51.904;4.256;2023-04-29T00:58:09;7.93;;;6.43;;
48516;SDS011;34310;51.904;4.256;2023-04-29T01:00:37;8.57;;;6.70;;
48516;SDS011;34310;51.904;4.256;2023-04-29T01:03:04;7.20;;;6.50;;
48516;SDS011;34310;51.904;4.256;2023-04-29T01:05:33;7.93;;;6.35;;
48516;SDS011;34310;51.904;4.256;2023-04-29T01:10:53;8.90;;;6.60;;
48516;SDS011;34310;51.904;4.256;2023-04-29T01:13:41;8.10;;;6.47;;
48516;SDS011;34310;51.904;4.256;2023-04-29T01:16:24;7.35;;;6.07;;
48516;SDS011;34310;51.904;4.256;2023-04-29T01:19:15;8.38;;;6.70;;
48516;SDS011;34310;51.904;4.256;2023-04-29T01:21:46;7.15;;;6.20;;
48516;SDS011;34310;51.904;4.256;2023-04-29T01:24:14;6.70;;;6.00;;
48516;SDS011;34310;51.904;4.256;2023-04-29T01:26:48;6.18;;;5.57;;
48516;SDS011;34310;51.904;4.256;2023-04-29T01:29:31;6.88;;;5.95;;
48516;SDS011;34310;51.904;4.256;2023-04-29T01:32:12;6.90;;;5.97;;
48516;SDS011;34310;51.904;4.256;2023-04-29T01:37:34;6.57;;;5.95;;
48516;SDS011;34310;51.904;4.256;2023-04-29T01:40:11;6.93;;;6.22;;
48516;SDS011;34310;51.904;4.256;2023-04-29T01:42:52;8.95;;;6.10;;
48516;SDS011;34310;51.904;4.256;2023-04-29T01:45:29;7.78;;;6.15;;
48516;SDS011;34310;51.904;4.256;2023-04-29T01:47:59;7.15;;;6.05;;
48516;SDS011;34310;51.904;4.256;2023-04-29T01:50:28;6.60;;;5.53;;
48516;SDS011;34310;51.904;4.256;2023-04-29T01:52:55;7.47;;;5.68;;
48516;SDS011;34310;51.904;4.256;2023-04-29T01:55:23;7.47;;;5.82;;
48516;SDS011;34310;51.904;4.256;2023-04-29T01:57:51;8.27;;;5.30;;
48516;SDS011;34310;51.904;4.256;2023-04-29T02:00:18;6.25;;;5.65;;
48516;SDS011;34310;51.904;4.256;2023-04-29T02:02:45;6.47;;;5.88;;
48516;SDS011;34310;51.904;4.256;2023-04-29T02:05:13;7.28;;;5.60;;
48516;SDS011;34310;51.904;4.256;2023-04-29T02:07:40;6.60;;;5.55;;
48516;SDS011;34310;51.904;4.256;2023-04-29T02:10:09;7.55;;;5.80;;
48516;SDS011;34310;51.904;4.256;2023-04-29T02:12:37;6.35;;;5.47;;
48516;SDS011;34310;51.904;4.256;2023-04-29T02:15:05;6.18;;;5.55;;
48516;SDS011;34310;51.904;4.256;2023-04-29T02:17:33;7.15;;;6.18;;
48516;SDS011;34310;51.904;4.256;2023-04-29T02:20:01;7.10;;;5.70;;
48516;SDS011;34310;51.904;4.256;2023-04-29T02:22:28;6.72;;;5.82;;
48516;SDS011;34310;51.904;4.256;2023-04-29T02:24:56;5.90;;;5.30;;
48516;SDS011;34310;51.904;4.256;2023-04-29T02:27:24;6.30;;;5.47;;
48516;SDS011;34310;51.904;4.256;2023-04-29T02:29:51;5.60;;;5.07;;
48516;SDS011;34310;51.904;4.256;2023-04-29T02:32:19;6.32;;;5.13;;
48516;SDS011;34310;51.904;4.256;2023-04-29T02:34:46;6.15;;;5.38;;
48516;SDS011;34310;51.904;4.256;2023-04-29T02:37:14;6.43;;;5.20;;
48516;SDS011;34310;51.904;4.256;2023-04-29T02:39:41;5.88;;;5.28;;
48516;SDS011;34310;51.904;4.256;2023-04-29T02:42:09;6.65;;;5.28;;
48516;SDS011;34310;51.904;4.256;2023-04-29T02:44:36;5.93;;;5.43;;
48516;SDS011;34310;51.904;4.256;2023-04-29T02:47:03;6.78;;;5.35;;
48516;SDS011;34310;51.904;4.256;2023-04-29T02:49:31;6.72;;;5.78;;
48516;SDS011;34310;51.904;4.256;2023-04-29T02:51:58;5.63;;;5.10;;
48516;SDS011;34310;51.904;4.256;2023-04-29T02:54:25;6.20;;;5.20;;
48516;SDS011;34310;51.904;4.256;2023-04-29T02:56:53;6.57;;;5.57;;
48516;SDS011;34310;51.904;4.256;2023-04-29T02:59:20;5.57;;;5.07;;
48516;SDS011;34310;51.904;4.256;2023-04-29T03:01:47;6.85;;;5.88;;
48516;SDS011;34310;51.904;4.256;2023-04-29T03:04:15;6.65;;;5.57;;
48516;SDS011;34310;51.904;4.256;2023-04-29T03:06:42;5.97;;;5.38;;
48516;SDS011;34310;51.904;4.256;2023-04-29T03:09:10;6.30;;;5.35;;
48516;SDS011;34310;51.904;4.256;2023-04-29T03:11:38;6.18;;;5.40;;
48516;SDS011;34310;51.904;4.256;2023-04-29T03:14:06;6.18;;;5.43;;
48516;SDS011;34310;51.904;4.256;2023-04-29T03:16:33;5.60;;;4.95;;
48516;SDS011;34310;51.904;4.256;2023-04-29T03:19:01;5.78;;;5.18;;
48516;SDS011;34310;51.904;4.256;2023-04-29T03:21:28;5.85;;;5.28;;
48516;SDS011;34310;51.904;4.256;2023-04-29T03:23:56;6.00;;;5.40;;
48516;SDS011;34310;51.904;4.256;2023-04-29T03:26:23;5.70;;;5.20;;
48516;SDS011;34310;51.904;4.256;2023-04-29T03:28:51;6.30;;;5.22;;
48516;SDS011;34310;51.904;4.256;2023-04-29T03:31:18;5.72;;;5.22;;
48516;SDS011;34310;51.904;4.256;2023-04-29T03:33:48;5.97;;;5.25;;
48516;SDS011;34310;51.904;4.256;2023-04-29T03:36:16;6.15;;;4.95;;
48516;SDS011;34310;51.904;4.256;2023-04-29T03:38:43;5.68;;;5.07;;
48516;SDS011;34310;51.904;4.256;2023-04-29T03:41:10;5.60;;;5.10;;
48516;SDS011;34310;51.904;4.256;2023-04-29T03:43:38;5.80;;;5.22;;
48516;SDS011;34310;51.904;4.256;2023-04-29T03:46:06;5.47;;;4.97;;
48516;SDS011;34310;51.904;4.256;2023-04-29T03:48:33;5.85;;;5.25;;
48516;SDS011;34310;51.904;4.256;2023-04-29T03:51:01;6.20;;;5.43;;
48516;SDS011;34310;51.904;4.256;2023-04-29T03:53:28;6.35;;;5.07;;
48516;SDS011;34310;51.904;4.256;2023-04-29T03:55:56;7.38;;;5.25;;
48516;SDS011;34310;51.904;4.256;2023-04-29T03:58:23;5.68;;;5.07;;
48516;SDS011;34310;51.904;4.256;2023-04-29T04:00:50;5.45;;;4.90;;
48516;SDS011;34310;51.904;4.256;2023-04-29T04:03:17;5.75;;;5.15;;
48516;SDS011;34310;51.904;4.256;2023-04-29T04:05:45;5.53;;;5.03;;
48516;SDS011;34310;51.904;4.256;2023-04-29T04:08:12;5.82;;;4.90;;
48516;SDS011;34310;51.904;4.256;2023-04-29T04:10:40;5.43;;;4.85;;
48516;SDS011;34310;51.904;4.256;2023-04-29T04:13:07;6.68;;;4.97;;
48516;SDS011;34310;51.904;4.256;2023-04-29T04:15:34;5.85;;;5.10;;
48516;SDS011;34310;51.904;4.256;2023-04-29T04:18:02;6.03;;;5.30;;
48516;SDS011;34310;51.904;4.256;2023-04-29T04:20:29;5.53;;;5.03;;
48516;SDS011;34310;51.904;4.256;2023-04-29T04:22:56;5.55;;;4.70;;
48516;SDS011;34310;51.904;4.256;2023-04-29T04:25:24;5.47;;;4.90;;
48516;SDS011;34310;51.904;4.256;2023-04-29T04:27:51;5.50;;;5.00;;
48516;SDS011;34310;51.904;4.256;2023-04-29T04:30:19;6.63;;;5.10;;
48516;SDS011;34310;51.904;4.256;2023-04-29T04:32:46;5.43;;;4.93;;
48516;SDS011;34310;51.904;4.256;2023-04-29T04:35:14;5.90;;;4.90;;
48516;SDS011;34310;51.904;4.256;2023-04-29T04:37:42;5.43;;;4.93;;
48516;SDS011;34310;51.904;4.256;2023-04-29T04:40:10;6.10;;;5.15;;
48516;SDS011;34310;51.904;4.256;2023-04-29T04:42:38;5.38;;;4.88;;
48516;SDS011;34310;51.904;4.256;2023-04-29T04:45:06;5.90;;;4.78;;
48516;SDS011;34310;51.904;4.256;2023-04-29T04:47:36;5.65;;;5.07;;
48516;SDS011;34310;51.904;4.256;2023-04-29T04:50:06;5.72;;;5.13;;
48516;SDS011;34310;51.904;4.256;2023-04-29T04:52:34;5.63;;;4.90;;
48516;SDS011;34310;51.904;4.256;2023-04-29T04:55:01;5.65;;;4.75;;
48516;SDS011;34310;51.904;4.256;2023-04-29T04:57:28;5.43;;;4.93;;
48516;SDS011;34310;51.904;4.256;2023-04-29T04:59:56;4.93;;;4.45;;
48516;SDS011;34310;51.904;4.256;2023-04-29T05:02:23;5.10;;;4.60;;
48516;SDS011;34310;51.904;4.256;2023-04-29T05:04:51;5.72;;;5.13;;
48516;SDS011;34310;51.904;4.256;2023-04-29T05:07:18;5.53;;;5.03;;
48516;SDS011;34310;51.904;4.256;2023-04-29T05:09:45;5.80;;;5.30;;
48516;SDS011;34310;51.904;4.256;2023-04-29T05:12:13;5.63;;;5.13;;
48516;SDS011;34310;51.904;4.256;2023-04-29T05:14:41;5.15;;;4.65;;
48516;SDS011;34310;51.904;4.256;2023-04-29T05:17:08;5.28;;;4.72;;
48516;SDS011;34310;51.904;4.256;2023-04-29T05:19:36;5.50;;;4.60;;
48516;SDS011;34310;51.904;4.256;2023-04-29T05:22:03;5.57;;;4.93;;
48516;SDS011;34310;51.904;4.256;2023-04-29T05:24:30;4.80;;;4.30;;
48516;SDS011;34310;51.904;4.256;2023-04-29T05:26:58;5.25;;;4.72;;
48516;SDS011;34310;51.904;4.256;2023-04-29T05:29:25;5.03;;;4.60;;
48516;SDS011;34310;51.904;4.256;2023-04-29T05:31:53;5.30;;;4.80;;
48516;SDS011;34310;51.904;4.256;2023-04-29T05:34:20;5.68;;;4.90;;
48516;SDS011;34310;51.904;4.256;2023-04-29T05:36:47;5.05;;;4.55;;
48516;SDS011;34310;51.904;4.256;2023-04-29T05:39:15;5.07;;;4.57;;
48516;SDS011;34310;51.904;4.256;2023-04-29T05:41:42;5.28;;;4.78;;
48516;SDS011;34310;51.904;4.256;2023-04-29T05:44:10;6.13;;;5.43;;
48516;SDS011;34310;51.904;4.256;2023-04-29T05:46:37;6.13;;;4.90;;
48516;SDS011;34310;51.904;4.256;2023-04-29T05:49:05;5.10;;;4.60;;
48516;SDS011;34310;51.904;4.256;2023-04-29T05:51:32;5.60;;;5.03;;
48516;SDS011;34310;51.904;4.256;2023-04-29T05:54:00;4.72;;;4.32;;
48516;SDS011;34310;51.904;4.256;2023-04-29T05:56:27;5.78;;;4.80;;
48516;SDS011;34310;51.904;4.256;2023-04-29T05:58:54;6.05;;;4.78;;
48516;SDS011;34310;51.904;4.256;2023-04-29T06:01:22;5.20;;;4.60;;
48516;SDS011;34310;51.904;4.256;2023-04-29T06:03:49;5.43;;;4.93;;
48516;SDS011;34310;51.904;4.256;2023-04-29T06:06:17;6.28;;;5.07;;
48516;SDS011;34310;51.904;4.256;2023-04-29T06:08:44;5.03;;;4.53;;
48516;SDS011;34310;51.904;4.256;2023-04-29T06:11:12;6.80;;;5.53;;
48516;SDS011;34310;51.904;4.256;2023-04-29T06:13:40;5.22;;;4.70;;
48516;SDS011;34310;51.904;4.256;2023-04-29T06:16:07;6.30;;;5.15;;
48516;SDS011;34310;51.904;4.256;2023-04-29T06:18:35;5.55;;;4.93;;
48516;SDS011;34310;51.904;4.256;2023-04-29T06:21:03;5.40;;;4.90;;
48516;SDS011;34310;51.904;4.256;2023-04-29T06:23:30;5.43;;;4.93;;
48516;SDS011;34310;51.904;4.256;2023-04-29T06:25:58;5.80;;;5.20;;
48516;SDS011;34310;51.904;4.256;2023-04-29T06:28:25;5.80;;;5.07;;
48516;SDS011;34310;51.904;4.256;2023-04-29T06:30:53;6.30;;;5.35;;
48516;SDS011;34310;51.904;4.256;2023-04-29T06:33:20;5.90;;;5.30;;
48516;SDS011;34310;51.904;4.256;2023-04-29T06:35:47;6.13;;;5.32;;
48516;SDS011;34310;51.904;4.256;2023-04-29T06:38:15;5.80;;;5.10;;
48516;SDS011;34310;51.904;4.256;2023-04-29T06:40:42;7.43;;;5.65;;
48516;SDS011;34310;51.904;4.256;2023-04-29T06:43:09;7.13;;;6.00;;
48516;SDS011;34310;51.904;4.256;2023-04-29T06:45:37;6.55;;;5.82;;
48516;SDS011;34310;51.904;4.256;2023-04-29T06:48:04;6.65;;;5.57;;
48516;SDS011;34310;51.904;4.256;2023-04-29T06:50:32;6.95;;;6.03;;
48516;SDS011;34310;51.904;4.256;2023-04-29T06:52:59;7.18;;;6.15;;
48516;SDS011;34310;51.904;4.256;2023-04-29T06:55:27;6.63;;;5.95;;
48516;SDS011;34310;51.904;4.256;2023-04-29T06:57:54;8.07;;;6.43;;
48516;SDS011;34310;51.904;4.256;2023-04-29T07:00:22;6.47;;;5.80;;
48516;SDS011;34310;51.904;4.256;2023-04-29T07:02:50;6.75;;;5.95;;
48516;SDS011;34310;51.904;4.256;2023-04-29T07:05:17;7.30;;;6.55;;
48516;SDS011;34310;51.904;4.256;2023-04-29T07:07:44;8.95;;;7.50;;
48516;SDS011;34310;51.904;4.256;2023-04-29T07:10:12;9.40;;;7.68;;
48516;SDS011;34310;51.904;4.256;2023-04-29T07:12:39;8.50;;;6.97;;
48516;SDS011;34310;51.904;4.256;2023-04-29T07:15:07;8.65;;;7.28;;
48516;SDS011;34310;51.904;4.256;2023-04-29T07:17:34;8.38;;;7.10;;
48516;SDS011;34310;51.904;4.256;2023-04-29T07:20:02;8.55;;;7.50;;
48516;SDS011;34310;51.904;4.256;2023-04-29T07:22:29;7.07;;;6.30;;
48516;SDS011;34310;51.904;4.256;2023-04-29T07:24:57;7.88;;;7.07;;
48516;SDS011;34310;51.904;4.256;2023-04-29T07:27:24;7.13;;;6.43;;
48516;SDS011;34310;51.904;4.256;2023-04-29T07:29:51;8.10;;;6.85;;
48516;SDS011;34310;51.904;4.256;2023-04-29T07:32:18;7.18;;;6.47;;
48516;SDS011;34310;51.904;4.256;2023-04-29T07:34:46;7.35;;;6.38;;
48516;SDS011;34310;51.904;4.256;2023-04-29T07:37:13;8.15;;;7.18;;
48516;SDS011;34310;51.904;4.256;2023-04-29T07:39:41;7.60;;;6.80;;
48516;SDS011;34310;51.904;4.256;2023-04-29T07:42:08;7.15;;;6.45;;
48516;SDS011;34310;51.904;4.256;2023-04-29T07:44:36;7.03;;;6.32;;
48516;SDS011;34310;51.904;4.256;2023-04-29T07:47:03;6.47;;;5.88;;
48516;SDS011;34310;51.904;4.256;2023-04-29T07:49:31;7.80;;;6.68;;
48516;SDS011;34310;51.904;4.256;2023-04-29T07:51:58;7.78;;;6.97;;
48516;SDS011;34310;51.904;4.256;2023-04-29T07:54:26;8.60;;;7.70;;
48516;SDS011;34310;51.904;4.256;2023-04-29T07:56:53;9.73;;;6.85;;
48516;SDS011;34310;51.904;4.256;2023-04-29T07:59:22;8.63;;;7.72;;
48516;SDS011;34310;51.904;4.256;2023-04-29T08:01:50;7.95;;;7.13;;
48516;SDS011;34310;51.904;4.256;2023-04-29T08:04:18;8.57;;;7.63;;
48516;SDS011;34310;51.904;4.256;2023-04-29T08:06:46;7.90;;;7.05;;
48516;SDS011;34310;51.904;4.256;2023-04-29T08:09:14;8.25;;;7.38;;
48516;SDS011;34310;51.904;4.256;2023-04-29T08:11:42;7.57;;;6.40;;
48516;SDS011;34310;51.904;4.256;2023-04-29T08:14:10;7.65;;;6.80;;
48516;SDS011;34310;51.904;4.256;2023-04-29T08:16:37;7.43;;;5.85;;
48516;SDS011;34310;51.904;4.256;2023-04-29T08:19:04;8.07;;;6.53;;
48516;SDS011;34310;51.904;4.256;2023-04-29T08:21:32;8.88;;;7.43;;
48516;SDS011;34310;51.904;4.256;2023-04-29T08:24:00;7.60;;;6.80;;
48516;SDS011;34310;51.904;4.256;2023-04-29T08:26:27;7.80;;;6.72;;
48516;SDS011;34310;51.904;4.256;2023-04-29T08:28:55;7.95;;;6.50;;
48516;SDS011;34310;51.904;4.256;2023-04-29T08:31:22;7.00;;;6.18;;
48516;SDS011;34310;51.904;4.256;2023-04-29T08:33:49;6.28;;;5.55;;
48516;SDS011;34310;51.904;4.256;2023-04-29T08:36:17;6.85;;;5.93;;
48516;SDS011;34310;51.904;4.256;2023-04-29T08:38:44;6.88;;;6.18;;
48516;SDS011;34310;51.904;4.256;2023-04-29T08:41:14;6.88;;;6.05;;
48516;SDS011;34310;51.904;4.256;2023-04-29T08:43:42;6.10;;;5.50;;
48516;SDS011;34310;51.904;4.256;2023-04-29T08:46:09;8.00;;;6.07;;
48516;SDS011;34310;51.904;4.256;2023-04-29T08:48:38;6.53;;;5.88;;
48516;SDS011;34310;51.904;4.256;2023-04-29T08:51:13;6.18;;;5.40;;
48516;SDS011;34310;51.904;4.256;2023-04-29T08:53:40;5.47;;;4.82;;
48516;SDS011;34310;51.904;4.256;2023-04-29T08:56:08;6.53;;;5.70;;
48516;SDS011;34310;51.904;4.256;2023-04-29T08:58:41;6.05;;;5.38;;
48516;SDS011;34310;51.904;4.256;2023-04-29T09:01:09;5.55;;;5.05;;
48516;SDS011;34310;51.904;4.256;2023-04-29T09:03:53;6.15;;;5.40;;
48516;SDS011;34310;51.904;4.256;2023-04-29T09:06:29;5.75;;;5.18;;
48516;SDS011;34310;51.904;4.256;2023-04-29T09:08:58;5.85;;;5.25;;
48516;SDS011;34310;51.904;4.256;2023-04-29T09:11:29;4.97;;;4.57;;
48516;SDS011;34310;51.904;4.256;2023-04-29T09:14:00;5.35;;;4.82;;
48516;SDS011;34310;51.904;4.256;2023-04-29T09:16:29;5.63;;;4.75;;
48516;SDS011;34310;51.904;4.256;2023-04-29T09:18:57;5.72;;;5.18;;
48516;SDS011;34310;51.904;4.256;2023-04-29T09:21:25;5.22;;;4.72;;
48516;SDS011;34310;51.904;4.256;2023-04-29T09:23:54;5.28;;;4.75;;
48516;SDS011;34310;51.904;4.256;2023-04-29T09:26:23;5.30;;;4.50;;
48516;SDS011;34310;51.904;4.256;2023-04-29T09:34:04;5.20;;;4.70;;
48516;SDS011;34310;51.904;4.256;2023-04-29T09:39:12;5.00;;;4.50;;
48516;SDS011;34310;51.904;4.256;2023-04-29T09:41:43;5.00;;;4.40;;
48516;SDS011;34310;51.904;4.256;2023-04-29T09:44:29;5.35;;;4.70;;
48516;SDS011;34310;51.904;4.256;2023-04-29T09:47:04;4.68;;;4.22;;
48516;SDS011;34310;51.904;4.256;2023-04-29T09:49:34;5.68;;;5.05;;
48516;SDS011;34310;51.904;4.256;2023-04-29T09:52:04;5.82;;;4.50;;
48516;SDS011;34310;51.904;4.256;2023-04-29T09:54:36;5.43;;;4.93;;
48516;SDS011;34310;51.904;4.256;2023-04-29T09:57:05;5.72;;;4.85;;
48516;SDS011;34310;51.904;4.256;2023-04-29T09:59:35;5.43;;;4.60;;
48516;SDS011;34310;51.904;4.256;2023-04-29T10:02:14;5.75;;;4.72;;
48516;SDS011;34310;51.904;4.256;2023-04-29T10:04:52;5.45;;;4.47;;
48516;SDS011;34310;51.904;4.256;2023-04-29T10:07:23;5.00;;;4.50;;
48516;SDS011;34310;51.904;4.256;2023-04-29T10:09:53;4.43;;;3.97;;
48516;SDS011;34310;51.904;4.256;2023-04-29T10:12:21;4.95;;;4.13;;
48516;SDS011;34310;51.904;4.256;2023-04-29T10:18:10;4.63;;;4.13;;
48516;SDS011;34310;51.904;4.256;2023-04-29T10:20:47;4.97;;;4.22;;
48516;SDS011;34310;51.904;4.256;2023-04-29T10:23:15;5.03;;;4.10;;
48516;SDS011;34310;51.904;4.256;2023-04-29T10:25:45;4.30;;;3.90;;
48516;SDS011;34310;51.904;4.256;2023-04-29T10:28:13;5.20;;;4.28;;
48516;SDS011;34310;51.904;4.256;2023-04-29T10:30:42;5.00;;;4.50;;
48516;SDS011;34310;51.904;4.256;2023-04-29T10:33:11;4.90;;;4.40;;
48516;SDS011;34310;51.904;4.256;2023-04-29T10:35:42;4.30;;;3.90;;
48516;SDS011;34310;51.904;4.256;2023-04-29T10:38:12;5.00;;;4.20;;
48516;SDS011;34310;51.904;4.256;2023-04-29T10:40:46;4.85;;;4.45;;
48516;SDS011;34310;51.904;4.256;2023-04-29T10:43:14;4.28;;;3.88;;
48516;SDS011;34310;51.904;4.256;2023-04-29T10:45:47;4.10;;;3.70;;
48516;SDS011;34310;51.904;4.256;2023-04-29T10:48:15;4.25;;;3.65;;
48516;SDS011;34310;51.904;4.256;2023-04-29T10:53:15;4.57;;;3.80;;
48516;SDS011;34310;51.904;4.256;2023-04-29T10:55:48;4.15;;;3.75;;
48516;SDS011;34310;51.904;4.256;2023-04-29T11:01:09;3.92;;;3.53;;
48516;SDS011;34310;51.904;4.256;2023-04-29T11:04:23;4.30;;;3.90;;
48516;SDS011;34310;51.904;4.256;2023-04-29T11:09:11;4.20;;;3.78;;
48516;SDS011;34310;51.904;4.256;2023-04-29T11:14:26;4.05;;;3.65;;
48516;SDS011;34310;51.904;4.256;2023-04-29T11:16:59;3.90;;;3.50;;
48516;SDS011;34310;51.904;4.256;2023-04-29T11:22:42;4.78;;;3.85;;
48516;SDS011;34310;51.904;4.256;2023-04-29T11:27:33;3.90;;;3.50;;
48516;SDS011;34310;51.904;4.256;2023-04-29T11:30:02;4.50;;;3.42;;
48516;SDS011;34310;51.904;4.256;2023-04-29T11:32:32;3.88;;;3.40;;
48516;SDS011;34310;51.904;4.256;2023-04-29T11:35:22;3.78;;;3.35;;
48516;SDS011;34310;51.904;4.256;2023-04-29T11:37:49;4.43;;;3.47;;
48516;SDS011;34310;51.904;4.256;2023-04-29T11:40:17;3.83;;;3.50;;
48516;SDS011;34310;51.904;4.256;2023-04-29T11:42:46;3.60;;;3.30;;
48516;SDS011;34310;51.904;4.256;2023-04-29T11:45:18;4.20;;;3.80;;
48516;SDS011;34310;51.904;4.256;2023-04-29T11:47:46;3.50;;;3.20;;
48516;SDS011;34310;51.904;4.256;2023-04-29T11:50:15;4.05;;;3.60;;
48516;SDS011;34310;51.904;4.256;2023-04-29T11:52:45;3.55;;;3.25;;
48516;SDS011;34310;51.904;4.256;2023-04-29T11:55:13;3.15;;;2.85;;
48516;SDS011;34310;51.904;4.256;2023-04-29T11:57:42;3.65;;;3.30;;
48516;SDS011;34310;51.904;4.256;2023-04-29T12:00:12;3.85;;;3.33;;
48516;SDS011;34310;51.904;4.256;2023-04-29T12:02:43;4.38;;;3.60;;
48516;SDS011;34310;51.904;4.256;2023-04-29T12:05:12;4.25;;;3.85;;
48516;SDS011;34310;51.904;4.256;2023-04-29T12:07:42;3.70;;;3.40;;
48516;SDS011;34310;51.904;4.256;2023-04-29T12:10:10;4.05;;;3.65;;
48516;SDS011;34310;51.904;4.256;2023-04-29T12:12:38;3.72;;;3.33;;
48516;SDS011;34310;51.904;4.256;2023-04-29T12:15:08;3.55;;;3.25;;
48516;SDS011;34310;51.904;4.256;2023-04-29T12:17:36;3.80;;;3.47;;
48516;SDS011;34310;51.904;4.256;2023-04-29T12:20:05;4.18;;;3.78;;
48516;SDS011;34310;51.904;4.256;2023-04-29T12:22:34;4.03;;;3.63;;
48516;SDS011;34310;51.904;4.256;2023-04-29T12:25:02;3.78;;;3.38;;
48516;SDS011;34310;51.904;4.256;2023-04-29T12:27:30;3.97;;;3.58;;
48516;SDS011;34310;51.904;4.256;2023-04-29T12:29:59;4.03;;;3.63;;
48516;SDS011;34310;51.904;4.256;2023-04-29T12:32:27;4.20;;;3.80;;
48516;SDS011;34310;51.904;4.256;2023-04-29T12:34:54;4.20;;;3.80;;
48516;SDS011;34310;51.904;4.256;2023-04-29T12:37:22;3.75;;;3.45;;
48516;SDS011;34310;51.904;4.256;2023-04-29T12:39:49;4.20;;;3.65;;
48516;SDS011;34310;51.904;4.256;2023-04-29T12:42:17;3.95;;;3.55;;
48516;SDS011;34310;51.904;4.256;2023-04-29T12:44:45;4.28;;;3.67;;
48516;SDS011;34310;51.904;4.256;2023-04-29T12:47:13;4.00;;;3.60;;
48516;SDS011;34310;51.904;4.256;2023-04-29T12:49:45;3.97;;;3.58;;
48516;SDS011;34310;51.904;4.256;2023-04-29T12:52:13;3.80;;;3.33;;
48516;SDS011;34310;51.904;4.256;2023-04-29T12:54:41;3.75;;;3.45;;
48516;SDS011;34310;51.904;4.256;2023-04-29T12:57:09;4.00;;;3.47;;
48516;SDS011;34310;51.904;4.256;2023-04-29T12:59:37;4.03;;;3.63;;
48516;SDS011;34310;51.904;4.256;2023-04-29T13:02:06;3.85;;;3.45;;
48516;SDS011;34310;51.904;4.256;2023-04-29T13:04:34;4.30;;;3.75;;
48516;SDS011;34310;51.904;4.256;2023-04-29T13:07:01;4.20;;;3.60;;
48516;SDS011;34310;51.904;4.256;2023-04-29T13:09:29;3.95;;;3.53;;
48516;SDS011;34310;51.904;4.256;2023-04-29T13:11:57;4.57;;;4.00;;
48516;SDS011;34310;51.904;4.256;2023-04-29T13:14:24;4.60;;;3.85;;
48516;SDS011;34310;51.904;4.256;2023-04-29T13:16:52;4.40;;;3.95;;
48516;SDS011;34310;51.904;4.256;2023-04-29T13:19:20;4.45;;;3.97;;
48516;SDS011;34310;51.904;4.256;2023-04-29T13:21:50;4.07;;;3.67;;
48516;SDS011;34310;51.904;4.256;2023-04-29T13:24:18;4.65;;;4.25;;
48516;SDS011;34310;51.904;4.256;2023-04-29T13:26:46;4.50;;;4.03;;
48516;SDS011;34310;51.904;4.256;2023-04-29T13:29:17;4.32;;;3.72;;
48516;SDS011;34310;51.904;4.256;2023-04-29T13:31:44;3.97;;;3.50;;
48516;SDS011;34310;51.904;4.256;2023-04-29T13:34:12;4.50;;;4.10;;
48516;SDS011;34310;51.904;4.256;2023-04-29T13:36:39;4.60;;;4.05;;
48516;SDS011;34310;51.904;4.256;2023-04-29T13:39:06;4.18;;;3.78;;
48516;SDS011;34310;51.904;4.256;2023-04-29T13:41:34;4.13;;;3.72;;
48516;SDS011;34310;51.904;4.256;2023-04-29T13:44:01;4.20;;;3.78;;
48516;SDS011;34310;51.904;4.256;2023-04-29T13:46:41;4.50;;;4.10;;
48516;SDS011;34310;51.904;4.256;2023-04-29T13:49:10;4.28;;;3.72;;
48516;SDS011;34310;51.904;4.256;2023-04-29T13:51:57;5.28;;;4.30;;
48516;SDS011;34310;51.904;4.256;2023-04-29T13:54:27;4.93;;;3.88;;
48516;SDS011;34310;51.904;4.256;2023-04-29T13:56:58;5.10;;;4.57;;
48516;SDS011;34310;51.904;4.256;2023-04-29T13:59:29;4.57;;;3.67;;
48516;SDS011;34310;51.904;4.256;2023-04-29T14:02:09;4.68;;;3.92;;
48516;SDS011;34310;51.904;4.256;2023-04-29T14:04:41;4.53;;;4.07;;
48516;SDS011;34310;51.904;4.256;2023-04-29T14:07:09;4.60;;;4.00;;
48516;SDS011;34310;51.904;4.256;2023-04-29T14:09:36;4.75;;;4.10;;
48516;SDS011;34310;51.904;4.256;2023-04-29T14:12:05;4.45;;;3.97;;
48516;SDS011;34310;51.904;4.256;2023-04-29T14:14:32;4.57;;;4.03;;
48516;SDS011;34310;51.904;4.256;2023-04-29T14:17:00;4.25;;;3.85;;
48516;SDS011;34310;51.904;4.256;2023-04-29T14:19:28;4.60;;;4.03;;
48516;SDS011;34310;51.904;4.256;2023-04-29T14:21:56;4.68;;;3.92;;
48516;SDS011;34310;51.904;4.256;2023-04-29T14:24:23;4.25;;;3.83;;
48516;SDS011;34310;51.904;4.256;2023-04-29T14:26:50;5.18;;;4.07;;
48516;SDS011;34310;51.904;4.256;2023-04-29T14:29:19;4.20;;;3.70;;
48516;SDS011;34310;51.904;4.256;2023-04-29T14:31:46;4.75;;;3.75;;
48516;SDS011;34310;51.904;4.256;2023-04-29T14:34:14;5.28;;;4.43;;
48516;SDS011;34310;51.904;4.256;2023-04-29T14:36:41;4.85;;;4.35;;
48516;SDS011;34310;51.904;4.256;2023-04-29T14:39:11;6.40;;;4.70;;
48516;SDS011;34310;51.904;4.256;2023-04-29T14:41:39;4.50;;;4.10;;
48516;SDS011;34310;51.904;4.256;2023-04-29T14:44:06;5.00;;;4.32;;
48516;SDS011;34310;51.904;4.256;2023-04-29T14:46:33;5.45;;;4.55;;
48516;SDS011;34310;51.904;4.256;2023-04-29T14:49:00;4.88;;;4.35;;
48516;SDS011;34310;51.904;4.256;2023-04-29T14:51:29;5.10;;;4.60;;
48516;SDS011;34310;51.904;4.256;2023-04-29T14:53:56;5.28;;;4.40;;
48516;SDS011;34310;51.904;4.256;2023-04-29T14:56:24;5.82;;;4.57;;
48516;SDS011;34310;51.904;4.256;2023-04-29T14:58:51;5.20;;;4.70;;
48516;SDS011;34310;51.904;4.256;2023-04-29T15:01:18;5.28;;;4.43;;
48516;SDS011;34310;51.904;4.256;2023-04-29T15:03:46;4.93;;;4.38;;
48516;SDS011;34310;51.904;4.256;2023-04-29T15:06:14;6.25;;;4.40;;
48516;SDS011;34310;51.904;4.256;2023-04-29T15:08:41;4.93;;;4.20;;
48516;SDS011;34310;51.904;4.256;2023-04-29T15:11:08;5.15;;;4.15;;
48516;SDS011;34310;51.904;4.256;2023-04-29T15:13:36;4.72;;;3.85;;
48516;SDS011;34310;51.904;4.256;2023-04-29T15:16:03;4.50;;;4.07;;
48516;SDS011;34310;51.904;4.256;2023-04-29T15:18:33;5.13;;;4.40;;
48516;SDS011;34310;51.904;4.256;2023-04-29T15:21:00;4.60;;;4.10;;
48516;SDS011;34310;51.904;4.256;2023-04-29T15:23:29;4.88;;;4.13;;
48516;SDS011;34310;51.904;4.256;2023-04-29T15:25:56;5.05;;;4.45;;
48516;SDS011;34310;51.904;4.256;2023-04-29T15:28:24;5.07;;;4.15;;
48516;SDS011;34310;51.904;4.256;2023-04-29T15:30:51;5.55;;;4.40;;